RJFA(METAR)
05/22 00:00
METAR RJFA 211500Z 19003KT 9999 FEW030 17/14 Q1008 RMK 1CU030 A2977=
戻る
トップページへ戻る
IMOC Co,.Ltd.